Terminal Aerodrome Forecast
Issued by NWS

Home | Current Version | Previous Version | Text Only | Print | Product List | Glossary On
Versions: 1 2 3 4 5 6 7 8 9 10 11 12 13 14 15 16 17 18 19 20 21
000
FTUS41 KPBZ 302220 AAC
TAFBVI
TAF AMD
KBVI 302220Z 3022/3118 12008KT P6SM BKN120
     FM310000 14009KT P6SM OVC050 WS020/20040KT
     FM310900 16012KT 4SM -RA OVC015 WS020/20045KT
     FM311100 18006KT 3SM -SHRA BKN010
     FM311300 15008KT 3SM -SHRA OVC008=

USA.gov is the U.S. government's official web portal to all federal, state and local government web resources and services.